• Join FlightAware (Why Join?)
  • Login
  • US Flag 
07:53PM EDT


 

Airport Tracker/Info


-or-


 

Live Flight TrackerFlight Track Log ✈ USC105 ✈ 23-Apr-2013 ✈ KBKL - KYIP

Flight Track Log - Related Links

Times and Time Zones

All times are in EDT time to prevent confusion due to time zone crossing. See the USC105 flight status page for this flight to view local times or setup timezone preferences in your user account.

Time Position Orientation Groundspeed Altitude Reporting Facility
EDT Latitude Longitude Course Direction KTS MPH feet Rate Location/Type
11:15PM 41.5458 -81.7206 327° Northwest 130 150 2,300  Level Cleveland Center
11:16PM 41.5619 -81.7625 297° West 130 150 2,900 540 Climbing Cleveland Center
11:17PM 41.5803 -81.8072 299° West 138 159 3,500 480 Climbing Cleveland Center
11:18PM 41.6006 -81.8606 297° West 149 171 3,900 180 Climbing Cleveland Center
11:19PM 41.6228 -81.9108 301° West 160 184 3,900 240 Level Cleveland Center
11:20PM 41.6389 -81.9667 291° West 159 183 4,400 480 Climbing Cleveland Center
11:21PM 41.6528 -82.0228 288° West 158 182 4,900 540 Climbing Cleveland Center
11:22PM 41.6708 -82.0786 293° West 159 183 5,600 660 Climbing Cleveland Center
11:23PM 41.6869 -82.1292 293° West 159 183 6,300 600 Climbing Cleveland Center
11:24PM 41.7028 -82.1822 292° West 154 177 6,900 540 Climbing Cleveland Center
11:25PM 41.7167 -82.2300 291° West 148 170 7,400 600 Climbing Cleveland Center
11:26PM 41.7347 -82.2806 296° West 150 173 8,100 240 Climbing Cleveland Center
11:27PM 41.7547 -82.3367 296° West 160 184 8,000 -60 Descending Cleveland Center
11:28PM 41.7706 -82.3983 289° West 167 192 8,000 -60 Level Cleveland Center
11:29PM 41.7967 -82.4603 300° West 164 189 7,900 -60 Descending Cleveland Center
11:30PM 41.8103 -82.5136 289° West 165 190 7,900  Level Cleveland Center
11:31PM 41.8300 -82.5728 294° West 165 190 7,900  Level Cleveland Center
11:32PM 41.8481 -82.6264 294° West 166 191 7,900  Level Cleveland Center
11:33PM 41.8742 -82.6803 303° West 181 208 7,900  Level Cleveland Center
11:34PM 41.9044 -82.7314 309° West 175 201 7,900  Level Cleveland Center
11:35PM 41.9325 -82.7881 304° West 176 203 7,900  Level Cleveland Center
11:36PM 41.9606 -82.8450 304° West 177 204 7,900  Level Cleveland Center
11:37PM 41.9867 -82.8906 308° West 178 205 7,900 -180 Level Cleveland Center
11:38PM 42.0208 -82.9533 306° West 182 209 7,600 -480 Descending Cleveland Center
11:39PM 42.0531 -83.0078 309° West 194 223 7,000 -600 Descending Cleveland Center
11:40PM 42.0853 -83.0678 306° West 193 222 6,500 -480 Descending Cleveland Center
11:41PM 42.1133 -83.1219 305° West 193 222 6,100 -540 Descending Cleveland Center
11:42PM 42.1336 -83.1547 310° West 194 223 5,700 -600 Descending FAA TRACON SMA TRACON (SMA)
11:42PM 42.1464 -83.1772 307° West 195 224 5,500 -480 Descending FAA TRACON SMA TRACON (SMA)
11:42PM 42.1561 -83.1961 305° West 197 227 5,400 -480 Descending FAA TRACON SMA TRACON (SMA)
11:43PM 42.1661 -83.2147 306° West 197 227 5,200 -480 Descending FAA TRACON SMA TRACON (SMA)
11:43PM 42.1789 -83.2369 308° West 196 226 5,100 -480 Descending FAA TRACON SMA TRACON (SMA)
11:43PM 42.1892 -83.2542 309° West 195 224 4,900 -600 Descending FAA TRACON SMA TRACON (SMA)
11:44PM 42.1994 -83.2714 309° West 194 223 4,700 -1,080 Descending FAA TRACON SMA TRACON (SMA)
11:44PM 42.2125 -83.2939 308° West 198 228 4,200 -900 Descending FAA TRACON SMA TRACON (SMA)
11:44PM 42.2236 -83.3103 312° West 208 239 4,100 -480 Descending FAA TRACON SMA TRACON (SMA)
11:45PM 42.2358 -83.3319 307° West 191 220 3,900 -1,080 Descending FAA TRACON SMA TRACON (SMA)
11:45PM 42.2472 -83.3542 305° West 204 235 3,400 -1,260 Descending FAA TRACON SMA TRACON (SMA)
11:45PM 42.2550 -83.3719 301° West 201 231 3,100 -780 Descending FAA TRACON SMA TRACON (SMA)
11:46PM 42.2633 -83.3914 300° West 193 222 2,900 -900 Descending FAA TRACON SMA TRACON (SMA)
11:46PM 42.2725 -83.4158 297° West 190 219 2,500 -780 Descending FAA TRACON SMA TRACON (SMA)
11:46PM 42.2794 -83.4353 296° West 188 216 2,400 -180 Descending FAA TRACON SMA TRACON (SMA)
11:47PM 42.2831 -83.4581 282° West 150 173 2,400 -360 Level FAA TRACON SMA TRACON (SMA)
11:47PM 42.2781 -83.4725 245° Southwest 135 155 2,200 -600 Descending FAA TRACON SMA TRACON (SMA)
11:47PM 42.2700 -83.4844 228° Southwest 140 161 2,000 -1,080 Descending FAA TRACON SMA TRACON (SMA)
11:48PM 42.2606 -83.4972 225° Southwest 124 143 1,500 -1,320 Descending FAA TRACON SMA TRACON (SMA)
11:48PM 42.2528 -83.5083 227° Southwest 133 153 1,100 -900 Descending FAA TRACON SMA TRACON (SMA)
11:48PM 42.2469 -83.5164 226° Southwest 125 144 900 -240 Descending FAA TRACON SMA TRACON (SMA)
11:49PM 42.2469 -83.5164 10° North 125 144 900  Level FAA TRACON SMA TRACON (SMA)
11:51PM 42.2333 -83.5167 270° West  Level FlightAware Approximate